MHLC

Goloson International Airport

La Ceiba, Honduras
TAF MHLC 260500Z 2606/2706 00000KT 9999 FEW024 SCT080 TX32/2619Z TN23/2612Z BECMG 2614/2616 35008KT SCT026TCU BECMG 2621/2623 7000 VCSH SCT024CB SCT080 FM270200Z 00000KT 9999 SCT022 BKN070
Issued Valid From Valid To
Apr-26 @ 05:00 UTC
(58 minutes ago)
Apr-26 @ 06:00 UTC
(in 2 minutes)
Apr-27 @ 06:00 UTC
(in 24 hours)
Apr-26 @ 06:00 to Apr-26 @ 14:00
TAF MHLC 260500Z 2606/2706 00000KT 9999 FEW024 SCT080 TX32/2619Z TN23/2612Z
Visibility Clouds
10,000+ meters
  • Few at 2,400' AGL
  • Scattered at 8,000' AGL
Becoming Apr-26 @ 14:00 to Apr-26 @ 21:00
BECMG 2614/2616 35008KT SCT026TCU
Wind Visibility Clouds
350° at 8 knots 10,000+ meters
  • Scattered at 2,600' AGL
Becoming Apr-26 @ 21:00 to Apr-27 @ 02:00
BECMG 2621/2623 7000 VCSH SCT024CB SCT080
Wind Visibility Clouds
350° at 8 knots 7,001 meters
  • Scattered at 2,400' AGL
  • Scattered at 8,000' AGL
From Apr-27 @ 02:00 to Apr-27 @ 06:00
FM270200Z 00000KT 9999 SCT022 BKN070
Visibility Clouds
10,000+ meters
  • Scattered at 2,200' AGL
  • Broken at 7,000' AGL
TAF MHLC 260500Z 2606/2706 00000KT 9999 FEW024 SCT080 TX32/2619Z TN23/2612Z BECMG 2614/2616 35008KT SCT026TCU BECMG 2621/2623 7000 VCSH SCT024CB SCT080 FM270200Z 00000KT 9999 SCT022 BKN070
Issued Apr-26 @ 05:00 UTC
(58 minutes ago)
Valid From Apr-26 @ 06:00 UTC
(in 2 minutes)
Valid To Apr-27 @ 06:00 UTC
(in 24 hours)
Apr-26 @ 06:00 - Apr-26 @ 14:00
Clouds
  • Few at 2,400' AGL
  • Scattered at 8,000' AGL
Becoming Apr-26 @ 14:00 - Apr-26 @ 21:00
Wind Visibility
350° at 8 knots 10,000+ meters
Clouds
  • Scattered at 2,600' AGL
Becoming Apr-26 @ 21:00 - Apr-27 @ 02:00
Wind Visibility
350° at 8 knots 7,001 meters
Clouds
  • Scattered at 2,400' AGL
  • Scattered at 8,000' AGL
From Apr-27 @ 02:00 - Apr-27 @ 06:00
Clouds
  • Scattered at 2,200' AGL
  • Broken at 7,000' AGL